SWA3264 KRIC-KLAL
Flight info
| Callsign | SWA3264 |
|---|---|
| Flight time | N/A |
| Altitude | 36000 |
| Route | KALLI7 DRAIK GSO Q75 TEUFL GEEYE GNV |
| Aircraft | B738/M-SDE2E3FGHIRWXY/LB1 |
Departure
| Time | 2026-04-16 15:34 |
|---|---|
| Airport | Richmond International Airport (KRIC) |
Arrival
| Time | N/A |
|---|---|
| Airport | Lakeland Linder International Airport (KLAL) |
| Time | Latitude | Longitude | Altitude | Speed | Heading |
|---|---|---|---|---|---|
| 2026-04-16 14:32 | 37.50624 | -77.33057 | 171 ft | 0 kts | 284° |
| 2026-04-16 15:25 | 37.50618 | -77.33025 | 171 ft | 4 kts | 284° |
| 2026-04-16 15:25 | 37.50612 | -77.32999 | 171 ft | 2 kts | 295° |
| 2026-04-16 15:25 | 37.50606 | -77.32987 | 171 ft | 2 kts | 332° |
| 2026-04-16 15:25 | 37.50595 | -77.32984 | 171 ft | 2 kts | 9° |
| 2026-04-16 15:26 | 37.50584 | -77.32987 | 171 ft | 1 kts | 14° |
| 2026-04-16 15:28 | 37.50597 | -77.32983 | 171 ft | 5 kts | 14° |
| 2026-04-16 15:28 | 37.50673 | -77.32960 | 171 ft | 14 kts | 13° |
| 2026-04-16 15:29 | 37.50731 | -77.32942 | 172 ft | 7 kts | 14° |
| 2026-04-16 15:29 | 37.50786 | -77.32925 | 172 ft | 10 kts | 13° |
| 2026-04-16 15:29 | 37.50868 | -77.32901 | 171 ft | 14 kts | 14° |
| 2026-04-16 15:29 | 37.50984 | -77.32865 | 168 ft | 19 kts | 14° |
| 2026-04-16 15:30 | 37.51092 | -77.32832 | 169 ft | 14 kts | 13° |
| 2026-04-16 15:30 | 37.51195 | -77.32802 | 171 ft | 17 kts | 13° |
| 2026-04-16 15:30 | 37.51314 | -77.32767 | 170 ft | 12 kts | 14° |
| 2026-04-16 15:30 | 37.51407 | -77.32738 | 171 ft | 15 kts | 13° |
| 2026-04-16 15:31 | 37.51516 | -77.32705 | 171 ft | 18 kts | 13° |
| 2026-04-16 15:31 | 37.51598 | -77.32681 | 171 ft | 9 kts | 13° |
| 2026-04-16 15:31 | 37.51624 | -77.32668 | 171 ft | 1 kts | 38° |
| 2026-04-16 15:31 | 37.51625 | -77.32667 | 171 ft | 0 kts | 40° |
| 2026-04-16 15:32 | 37.51627 | -77.32663 | 171 ft | 0 kts | 50° |
| 2026-04-16 15:32 | 37.51630 | -77.32658 | 171 ft | 2 kts | 57° |
| 2026-04-16 15:32 | 37.51637 | -77.32621 | 171 ft | 7 kts | 84° |
| 2026-04-16 15:33 | 37.51638 | -77.32546 | 172 ft | 10 kts | 90° |
| 2026-04-16 15:33 | 37.51635 | -77.32448 | 174 ft | 13 kts | 96° |
| 2026-04-16 15:33 | 37.51621 | -77.32333 | 175 ft | 14 kts | 117° |
| 2026-04-16 15:33 | 37.51586 | -77.32295 | 175 ft | 2 kts | 147° |
| 2026-04-16 15:34 | 37.51434 | -77.32174 | 176 ft | 67 kts | 147° |
| 2026-04-16 15:34 | 37.50795 | -77.31662 | 168 ft | 148 kts | 148° |
| 2026-04-16 15:34 | 37.49794 | -77.30849 | 663 ft | 182 kts | 148° |
| 2026-04-16 15:34 | 37.48705 | -77.30077 | 1789 ft | 183 kts | 171° |
| 2026-04-16 15:35 | 37.47415 | -77.30252 | 2391 ft | 201 kts | 211° |
| 2026-04-16 15:35 | 37.46383 | -77.31577 | 2834 ft | 225 kts | 245° |
| 2026-04-16 15:35 | 37.46129 | -77.33542 | 3723 ft | 231 kts | 271° |
| 2026-04-16 15:35 | 37.46260 | -77.35620 | 4431 ft | 252 kts | 274° |
| 2026-04-16 15:36 | 37.46476 | -77.38005 | 4576 ft | 295 kts | 274° |
| 2026-04-16 15:36 | 37.46648 | -77.40451 | 5039 ft | 265 kts | 272° |
| 2026-04-16 15:36 | 37.46767 | -77.42723 | 5185 ft | 259 kts | 271° |
| 2026-04-16 15:36 | 37.46860 | -77.45008 | 5654 ft | 265 kts | 271° |
| 2026-04-16 15:37 | 37.46945 | -77.47362 | 6416 ft | 272 kts | 270° |
| 2026-04-16 15:37 | 37.47024 | -77.49754 | 7349 ft | 271 kts | 270° |
| 2026-04-16 15:37 | 37.47097 | -77.52087 | 8243 ft | 272 kts | 270° |
| 2026-04-16 15:37 | 37.47166 | -77.54488 | 9050 ft | 277 kts | 270° |
| 2026-04-16 15:38 | 37.47160 | -77.56905 | 9950 ft | 276 kts | 263° |
| 2026-04-16 15:38 | 37.46973 | -77.59333 | 10564 ft | 286 kts | 262° |
| 2026-04-16 15:38 | 37.46752 | -77.61926 | 10750 ft | 311 kts | 262° |
| 2026-04-16 15:38 | 37.46506 | -77.64731 | 10914 ft | 333 kts | 259° |
| 2026-04-16 15:39 | 37.45901 | -77.67625 | 11102 ft | 351 kts | 251° |
| 2026-04-16 15:39 | 37.45096 | -77.70571 | 11585 ft | 359 kts | 250° |
| 2026-04-16 15:39 | 37.44266 | -77.73536 | 12001 ft | 359 kts | 250° |
| 2026-04-16 15:39 | 37.43443 | -77.76493 | 11993 ft | 359 kts | 250° |
| 2026-04-16 15:40 | 37.42619 | -77.79490 | 12310 ft | 365 kts | 250° |
| 2026-04-16 15:40 | 37.41800 | -77.82503 | 13017 ft | 364 kts | 251° |
| 2026-04-16 15:40 | 37.40986 | -77.85520 | 13724 ft | 364 kts | 251° |
| 2026-04-16 15:40 | 37.40173 | -77.88545 | 14311 ft | 367 kts | 251° |
| 2026-04-16 15:41 | 37.39355 | -77.91596 | 14840 ft | 370 kts | 251° |
| 2026-04-16 15:41 | 37.38529 | -77.94672 | 15358 ft | 373 kts | 251° |
| 2026-04-16 15:41 | 37.37697 | -77.97770 | 15909 ft | 375 kts | 250° |
| 2026-04-16 15:41 | 37.36863 | -78.00878 | 16467 ft | 376 kts | 250° |
| 2026-04-16 15:42 | 37.36021 | -78.04005 | 16982 ft | 379 kts | 250° |
| 2026-04-16 15:42 | 37.35174 | -78.07153 | 17476 ft | 382 kts | 250° |
| 2026-04-16 15:42 | 37.34316 | -78.10334 | 17910 ft | 386 kts | 250° |
| 2026-04-16 15:42 | 37.33450 | -78.13544 | 18352 ft | 389 kts | 250° |
| 2026-04-16 15:43 | 37.32577 | -78.16774 | 18780 ft | 391 kts | 250° |
| 2026-04-16 15:43 | 37.31701 | -78.20011 | 19242 ft | 392 kts | 250° |
| 2026-04-16 15:43 | 37.30820 | -78.23263 | 19673 ft | 394 kts | 250° |
| 2026-04-16 15:43 | 37.29934 | -78.26535 | 20082 ft | 397 kts | 250° |
| 2026-04-16 15:44 | 37.29041 | -78.29823 | 20475 ft | 399 kts | 250° |
| 2026-04-16 15:44 | 37.28143 | -78.33132 | 20888 ft | 401 kts | 250° |
| 2026-04-16 15:44 | 37.27319 | -78.36491 | 21296 ft | 404 kts | 252° |
| 2026-04-16 15:44 | 37.26558 | -78.39893 | 21688 ft | 406 kts | 253° |
| 2026-04-16 15:45 | 37.25812 | -78.43323 | 22079 ft | 408 kts | 253° |
| 2026-04-16 15:45 | 37.25063 | -78.46769 | 22453 ft | 411 kts | 253° |
| 2026-04-16 15:45 | 37.24302 | -78.50227 | 22839 ft | 412 kts | 253° |
| 2026-04-16 15:45 | 37.23530 | -78.53702 | 23216 ft | 414 kts | 252° |
| 2026-04-16 15:46 | 37.22748 | -78.57191 | 23580 ft | 416 kts | 252° |
| 2026-04-16 15:46 | 37.21958 | -78.60695 | 23883 ft | 418 kts | 252° |
| 2026-04-16 15:46 | 37.21162 | -78.64214 | 24177 ft | 420 kts | 252° |
| 2026-04-16 15:46 | 37.20363 | -78.67742 | 24495 ft | 421 kts | 252° |
| 2026-04-16 15:47 | 37.19557 | -78.71291 | 24760 ft | 424 kts | 253° |
| 2026-04-16 15:47 | 37.18746 | -78.74858 | 25030 ft | 426 kts | 253° |
| 2026-04-16 15:47 | 37.17932 | -78.78437 | 25321 ft | 427 kts | 252° |
| 2026-04-16 15:47 | 37.17115 | -78.82025 | 25607 ft | 429 kts | 253° |
| 2026-04-16 15:48 | 37.16294 | -78.85625 | 25897 ft | 430 kts | 253° |
| 2026-04-16 15:48 | 37.15470 | -78.89233 | 26183 ft | 431 kts | 253° |
| 2026-04-16 15:48 | 37.14640 | -78.92856 | 26453 ft | 433 kts | 253° |
| 2026-04-16 15:48 | 37.13587 | -78.96386 | 26692 ft | 434 kts | 241° |
| 2026-04-16 15:49 | 37.11857 | -78.99489 | 26957 ft | 437 kts | 229° |
| 2026-04-16 15:49 | 37.09588 | -79.02034 | 27233 ft | 440 kts | 219° |
| 2026-04-16 15:49 | 37.07122 | -79.04318 | 27511 ft | 442 kts | 219° |
| 2026-04-16 15:49 | 37.04664 | -79.06542 | 27821 ft | 442 kts | 218° |
| 2026-04-16 15:50 | 37.02170 | -79.08789 | 28192 ft | 440 kts | 218° |
| 2026-04-16 15:50 | 36.99697 | -79.11029 | 28619 ft | 438 kts | 219° |
| 2026-04-16 15:50 | 36.97239 | -79.13270 | 29018 ft | 436 kts | 219° |
| 2026-04-16 15:50 | 36.94789 | -79.15517 | 29345 ft | 437 kts | 219° |
| 2026-04-16 15:51 | 36.92344 | -79.17768 | 29688 ft | 437 kts | 219° |
| 2026-04-16 15:51 | 36.89903 | -79.20019 | 30093 ft | 435 kts | 220° |
| 2026-04-16 15:51 | 36.87474 | -79.22258 | 30481 ft | 433 kts | 220° |
| 2026-04-16 15:51 | 36.85058 | -79.24484 | 30867 ft | 431 kts | 220° |
| 2026-04-16 15:52 | 36.82648 | -79.26703 | 31223 ft | 429 kts | 220° |
| 2026-04-16 15:52 | 36.80248 | -79.28910 | 31582 ft | 428 kts | 220° |
| 2026-04-16 15:52 | 36.77859 | -79.31106 | 31946 ft | 426 kts | 220° |
| 2026-04-16 15:52 | 36.75474 | -79.33296 | 32285 ft | 425 kts | 220° |
| 2026-04-16 15:53 | 36.73094 | -79.35480 | 32535 ft | 426 kts | 220° |
| 2026-04-16 15:53 | 36.70708 | -79.37668 | 32802 ft | 426 kts | 220° |
| 2026-04-16 15:53 | 36.68329 | -79.39846 | 33180 ft | 423 kts | 220° |
| 2026-04-16 15:53 | 36.65965 | -79.42009 | 33588 ft | 420 kts | 220° |
| 2026-04-16 15:54 | 36.63612 | -79.44160 | 33955 ft | 419 kts | 220° |
| 2026-04-16 15:54 | 36.61267 | -79.46303 | 34237 ft | 418 kts | 220° |
| 2026-04-16 15:54 | 36.58925 | -79.48442 | 34464 ft | 418 kts | 220° |
| 2026-04-16 15:54 | 36.56581 | -79.50582 | 34670 ft | 418 kts | 221° |
| 2026-04-16 15:55 | 36.54236 | -79.52721 | 34891 ft | 417 kts | 221° |
| 2026-04-16 15:55 | 36.51899 | -79.54850 | 35105 ft | 417 kts | 221° |
| 2026-04-16 15:55 | 36.49552 | -79.56986 | 35256 ft | 419 kts | 221° |
| 2026-04-16 15:55 | 36.47199 | -79.59128 | 35424 ft | 420 kts | 221° |
| 2026-04-16 15:56 | 36.44841 | -79.61272 | 35647 ft | 420 kts | 221° |
| 2026-04-16 15:56 | 36.42487 | -79.63409 | 35899 ft | 418 kts | 221° |
| 2026-04-16 15:56 | 36.40139 | -79.65538 | 36067 ft | 419 kts | 221° |
| 2026-04-16 15:57 | 36.35407 | -79.69830 | 36095 ft | 421 kts | 221° |
| 2026-04-16 15:57 | 36.30695 | -79.74092 | 36091 ft | 417 kts | 221° |
| 2026-04-16 15:58 | 36.26025 | -79.78312 | 36093 ft | 414 kts | 221° |
| 2026-04-16 15:58 | 36.21375 | -79.82508 | 36124 ft | 413 kts | 221° |
| 2026-04-16 15:59 | 36.14444 | -79.88754 | 36115 ft | 412 kts | 221° |
| 2026-04-16 15:59 | 36.09800 | -79.92931 | 36116 ft | 413 kts | 221° |
| 2026-04-16 16:00 | 36.05110 | -79.97054 | 36103 ft | 417 kts | 217° |
| 2026-04-16 16:00 | 35.99779 | -80.00081 | 36127 ft | 426 kts | 208° |
| 2026-04-16 16:01 | 35.94250 | -80.02759 | 36108 ft | 427 kts | 208° |
| 2026-04-16 16:01 | 35.88710 | -80.05462 | 36103 ft | 429 kts | 208° |
| 2026-04-16 16:02 | 35.83158 | -80.08191 | 36096 ft | 430 kts | 208° |
| 2026-04-16 16:02 | 35.77602 | -80.10926 | 36112 ft | 430 kts | 208° |
| 2026-04-16 16:03 | 35.72037 | -80.13662 | 36112 ft | 431 kts | 208° |
| 2026-04-16 16:03 | 35.66473 | -80.16394 | 36115 ft | 431 kts | 208° |
| 2026-04-16 16:04 | 35.60906 | -80.19123 | 36115 ft | 430 kts | 208° |
| 2026-04-16 16:04 | 35.55394 | -80.21820 | 36145 ft | 429 kts | 208° |
| 2026-04-16 16:05 | 35.49860 | -80.24524 | 36162 ft | 427 kts | 208° |
| 2026-04-16 16:05 | 35.44343 | -80.27216 | 36166 ft | 426 kts | 208° |
| 2026-04-16 16:06 | 35.38846 | -80.29895 | 36135 ft | 425 kts | 208° |
| 2026-04-16 16:06 | 35.33359 | -80.32565 | 36135 ft | 424 kts | 208° |
| 2026-04-16 16:07 | 35.27879 | -80.35228 | 36135 ft | 424 kts | 208° |
| 2026-04-16 16:07 | 35.22400 | -80.37887 | 36130 ft | 424 kts | 208° |
| 2026-04-16 16:08 | 35.16909 | -80.40547 | 36123 ft | 425 kts | 208° |
| 2026-04-16 16:08 | 35.11404 | -80.43211 | 36106 ft | 426 kts | 208° |
| 2026-04-16 16:09 | 35.05884 | -80.45877 | 36123 ft | 427 kts | 208° |
| 2026-04-16 16:09 | 35.00349 | -80.48547 | 36130 ft | 428 kts | 208° |
| 2026-04-16 16:10 | 34.95739 | -80.50768 | 36134 ft | 429 kts | 208° |
| 2026-04-16 16:10 | 34.90179 | -80.53443 | 36126 ft | 430 kts | 207° |
| 2026-04-16 16:11 | 34.84610 | -80.56118 | 36125 ft | 430 kts | 207° |
| 2026-04-16 16:11 | 34.79032 | -80.58794 | 36128 ft | 431 kts | 207° |
| 2026-04-16 16:12 | 34.73451 | -80.61468 | 36131 ft | 431 kts | 207° |
| 2026-04-16 16:12 | 34.67866 | -80.64139 | 36146 ft | 431 kts | 208° |
| 2026-04-16 16:13 | 34.62734 | -80.67666 | 36116 ft | 419 kts | 224° |
| 2026-04-16 16:13 | 34.58421 | -80.72353 | 36140 ft | 416 kts | 227° |
| 2026-04-16 16:14 | 34.54128 | -80.77074 | 36142 ft | 417 kts | 226° |
| 2026-04-16 16:14 | 34.49808 | -80.81777 | 36149 ft | 418 kts | 226° |
| 2026-04-16 16:15 | 34.45473 | -80.86476 | 36145 ft | 418 kts | 226° |
| 2026-04-16 16:15 | 34.41132 | -80.91173 | 36166 ft | 419 kts | 226° |
| 2026-04-16 16:16 | 34.36789 | -80.95868 | 36156 ft | 418 kts | 226° |
| 2026-04-16 16:16 | 34.32326 | -81.00400 | 36160 ft | 423 kts | 218° |
| 2026-04-16 16:17 | 34.27011 | -81.03617 | 36162 ft | 435 kts | 205° |
| 2026-04-16 16:17 | 34.21232 | -81.05820 | 36163 ft | 436 kts | 204° |
| 2026-04-16 16:18 | 34.15481 | -81.07972 | 36159 ft | 435 kts | 204° |
| 2026-04-16 16:18 | 34.09708 | -81.10162 | 36156 ft | 435 kts | 204° |
| 2026-04-16 16:19 | 34.03945 | -81.12367 | 36158 ft | 434 kts | 204° |
| 2026-04-16 16:19 | 33.98180 | -81.14576 | 36159 ft | 435 kts | 204° |
| 2026-04-16 16:20 | 33.92418 | -81.16780 | 36156 ft | 435 kts | 204° |
| 2026-04-16 16:20 | 33.86650 | -81.18983 | 36145 ft | 435 kts | 204° |
| 2026-04-16 16:21 | 33.80874 | -81.21184 | 36161 ft | 436 kts | 204° |
| 2026-04-16 16:21 | 33.75088 | -81.23387 | 36160 ft | 437 kts | 204° |
| 2026-04-16 16:22 | 33.69287 | -81.25593 | 36162 ft | 438 kts | 204° |
| 2026-04-16 16:22 | 33.63477 | -81.27798 | 36140 ft | 438 kts | 204° |
| 2026-04-16 16:23 | 33.57657 | -81.30004 | 36161 ft | 439 kts | 204° |
| 2026-04-16 16:23 | 33.51828 | -81.32211 | 36166 ft | 440 kts | 204° |
| 2026-04-16 16:24 | 33.45989 | -81.34418 | 36175 ft | 440 kts | 204° |
| 2026-04-16 16:24 | 33.40155 | -81.36620 | 36177 ft | 440 kts | 204° |
| 2026-04-16 16:25 | 33.34316 | -81.38821 | 36181 ft | 439 kts | 204° |
| 2026-04-16 16:25 | 33.28479 | -81.41019 | 36179 ft | 440 kts | 204° |
| 2026-04-16 16:26 | 33.22699 | -81.43378 | 36183 ft | 438 kts | 206° |
| 2026-04-16 16:26 | 33.16968 | -81.45884 | 36182 ft | 439 kts | 206° |
| 2026-04-16 16:27 | 33.11253 | -81.48358 | 36174 ft | 440 kts | 206° |
| 2026-04-16 16:27 | 33.05489 | -81.50821 | 36170 ft | 441 kts | 206° |
| 2026-04-16 16:28 | 32.99712 | -81.53280 | 36171 ft | 441 kts | 206° |
| 2026-04-16 16:28 | 32.93932 | -81.55738 | 36175 ft | 441 kts | 206° |
| 2026-04-16 16:29 | 32.88168 | -81.58227 | 36184 ft | 440 kts | 207° |
| 2026-04-16 16:29 | 32.82454 | -81.60826 | 36184 ft | 440 kts | 207° |
| 2026-04-16 16:30 | 32.76744 | -81.63436 | 36198 ft | 440 kts | 207° |
| 2026-04-16 16:30 | 32.71026 | -81.66032 | 36216 ft | 440 kts | 207° |
| 2026-04-16 16:31 | 32.65305 | -81.68616 | 36210 ft | 440 kts | 207° |
| 2026-04-16 16:31 | 32.59579 | -81.71197 | 36183 ft | 440 kts | 207° |
| 2026-04-16 16:32 | 32.53861 | -81.73770 | 36167 ft | 439 kts | 207° |
| 2026-04-16 16:32 | 32.48147 | -81.76339 | 36180 ft | 439 kts | 207° |
| 2026-04-16 16:33 | 32.42430 | -81.78907 | 36174 ft | 439 kts | 207° |
| 2026-04-16 16:33 | 32.36709 | -81.81472 | 36177 ft | 440 kts | 207° |
| 2026-04-16 16:34 | 32.30990 | -81.84033 | 36188 ft | 440 kts | 207° |
| 2026-04-16 16:34 | 32.25259 | -81.86597 | 36192 ft | 441 kts | 207° |
| 2026-04-16 16:35 | 32.19513 | -81.89164 | 36191 ft | 442 kts | 207° |
| 2026-04-16 16:35 | 32.13781 | -81.91703 | 36193 ft | 444 kts | 205° |
| 2026-04-16 16:36 | 32.07873 | -81.93964 | 36183 ft | 448 kts | 203° |
| 2026-04-16 16:36 | 32.01913 | -81.96131 | 36199 ft | 448 kts | 203° |
| 2026-04-16 16:37 | 31.95962 | -81.98338 | 36199 ft | 449 kts | 204° |
| 2026-04-16 16:37 | 31.90002 | -82.00567 | 36196 ft | 450 kts | 204° |
| 2026-04-16 16:38 | 31.83967 | -82.02591 | 36194 ft | 454 kts | 198° |
| 2026-04-16 16:38 | 31.77754 | -82.04031 | 36187 ft | 456 kts | 197° |
| 2026-04-16 16:39 | 31.71521 | -82.05402 | 36192 ft | 456 kts | 197° |
| 2026-04-16 16:39 | 31.65295 | -82.06818 | 36190 ft | 456 kts | 197° |
| 2026-04-16 16:40 | 31.59073 | -82.08266 | 36218 ft | 456 kts | 197° |
| 2026-04-16 16:40 | 31.52844 | -82.09723 | 36199 ft | 456 kts | 197° |
| 2026-04-16 16:41 | 31.46612 | -82.11178 | 36207 ft | 457 kts | 197° |
| 2026-04-16 16:41 | 31.40374 | -82.12631 | 36207 ft | 457 kts | 197° |
| 2026-04-16 16:42 | 31.34128 | -82.14084 | 36205 ft | 458 kts | 197° |
| 2026-04-16 16:42 | 31.27913 | -82.15527 | 36197 ft | 459 kts | 197° |
| 2026-04-16 16:43 | 31.21652 | -82.16978 | 36211 ft | 459 kts | 197° |
| 2026-04-16 16:43 | 31.15386 | -82.18429 | 36241 ft | 460 kts | 197° |
| 2026-04-16 16:44 | 31.09106 | -82.19882 | 36235 ft | 460 kts | 197° |
| 2026-04-16 16:44 | 31.02816 | -82.21335 | 36262 ft | 461 kts | 197° |
| 2026-04-16 16:45 | 30.96519 | -82.22787 | 36267 ft | 461 kts | 197° |
| 2026-04-16 16:45 | 30.90219 | -82.24238 | 36297 ft | 462 kts | 197° |
| 2026-04-16 16:46 | 30.83914 | -82.25688 | 36307 ft | 462 kts | 197° |
| 2026-04-16 16:46 | 30.77602 | -82.27138 | 36306 ft | 462 kts | 197° |
| 2026-04-16 16:47 | 30.71291 | -82.28586 | 36320 ft | 462 kts | 197° |
| 2026-04-16 16:47 | 30.64987 | -82.30030 | 36322 ft | 462 kts | 196° |
| 2026-04-16 16:48 | 30.58539 | -82.30622 | 36336 ft | 470 kts | 184° |
| 2026-04-16 16:48 | 30.52004 | -82.30324 | 36325 ft | 470 kts | 182° |
| 2026-04-16 16:49 | 30.45471 | -82.30014 | 36338 ft | 469 kts | 183° |
| 2026-04-16 16:49 | 30.38952 | -82.29757 | 36334 ft | 468 kts | 183° |
| 2026-04-16 16:50 | 30.32441 | -82.29526 | 36333 ft | 468 kts | 184° |
| 2026-04-16 16:50 | 30.25935 | -82.29299 | 36317 ft | 468 kts | 184° |
| 2026-04-16 16:51 | 30.19431 | -82.29070 | 36314 ft | 468 kts | 184° |
| 2026-04-16 16:51 | 30.12974 | -82.28842 | 36293 ft | 468 kts | 183° |
| 2026-04-16 16:52 | 30.06468 | -82.28612 | 36306 ft | 468 kts | 183° |
| 2026-04-16 16:52 | 29.99952 | -82.28382 | 36285 ft | 469 kts | 183° |
| 2026-04-16 16:53 | 29.93534 | -82.28150 | 36242 ft | 448 kts | 183° |
| 2026-04-16 16:53 | 29.90464 | -82.28037 | 36239 ft | 435 kts | 184° |
| 2026-04-16 16:53 | 29.87485 | -82.27929 | 36232 ft | 422 kts | 184° |
| 2026-04-16 16:54 | 29.84595 | -82.27827 | 36190 ft | 410 kts | 184° |
| 2026-04-16 16:54 | 29.81738 | -82.27731 | 35586 ft | 415 kts | 184° |
| 2026-04-16 16:54 | 29.78806 | -82.27638 | 34668 ft | 428 kts | 183° |
| 2026-04-16 16:54 | 29.75778 | -82.27538 | 33619 ft | 445 kts | 182° |
| 2026-04-16 16:55 | 29.72624 | -82.27429 | 32680 ft | 461 kts | 182° |
| 2026-04-16 16:55 | 29.69385 | -82.27315 | 31927 ft | 471 kts | 182° |
| 2026-04-16 16:55 | 29.66088 | -82.27193 | 31298 ft | 477 kts | 182° |
| 2026-04-16 16:55 | 29.62764 | -82.27090 | 30802 ft | 479 kts | 183° |
| 2026-04-16 16:56 | 29.59436 | -82.27021 | 30391 ft | 478 kts | 183° |
| 2026-04-16 16:56 | 29.56101 | -82.26964 | 29894 ft | 479 kts | 183° |
| 2026-04-16 16:56 | 29.52776 | -82.26905 | 29532 ft | 476 kts | 183° |
| 2026-04-16 16:56 | 29.49481 | -82.26842 | 29269 ft | 472 kts | 183° |
| 2026-04-16 16:57 | 29.46212 | -82.26773 | 28990 ft | 468 kts | 183° |
| 2026-04-16 16:57 | 29.39731 | -82.26630 | 28365 ft | 464 kts | 182° |
| 2026-04-16 16:57 | 29.36514 | -82.26557 | 28074 ft | 461 kts | 182° |
| 2026-04-16 16:58 | 29.33317 | -82.26484 | 27795 ft | 458 kts | 182° |
| 2026-04-16 16:58 | 29.30137 | -82.26412 | 27500 ft | 456 kts | 182° |
| 2026-04-16 16:58 | 29.26965 | -82.26340 | 27166 ft | 455 kts | 182° |
| 2026-04-16 16:58 | 29.23804 | -82.26269 | 26891 ft | 453 kts | 182° |
| 2026-04-16 16:59 | 29.20660 | -82.26198 | 26647 ft | 451 kts | 182° |
| 2026-04-16 16:59 | 29.18588 | -82.26151 | 26489 ft | 449 kts | 182° |
| 2026-04-16 16:59 | 29.15472 | -82.26080 | 26243 ft | 447 kts | 182° |
| 2026-04-16 16:59 | 29.12374 | -82.26010 | 25992 ft | 445 kts | 182° |
| 2026-04-16 17:00 | 29.09285 | -82.25941 | 25760 ft | 443 kts | 181° |
| 2026-04-16 17:00 | 29.06217 | -82.25871 | 25537 ft | 440 kts | 181° |
| 2026-04-16 17:00 | 29.03159 | -82.25803 | 25324 ft | 438 kts | 181° |
| 2026-04-16 17:00 | 29.00114 | -82.25734 | 25076 ft | 437 kts | 181° |
| 2026-04-16 17:01 | 28.97079 | -82.25666 | 24842 ft | 436 kts | 181° |
| 2026-04-16 17:01 | 28.94050 | -82.25598 | 24629 ft | 434 kts | 181° |
| 2026-04-16 17:01 | 28.91039 | -82.25531 | 24426 ft | 432 kts | 181° |
| 2026-04-16 17:01 | 28.88040 | -82.25464 | 24225 ft | 430 kts | 181° |
| 2026-04-16 17:02 | 28.85056 | -82.25397 | 24041 ft | 428 kts | 181° |
| 2026-04-16 17:02 | 28.82078 | -82.25330 | 23850 ft | 427 kts | 181° |
| 2026-04-16 17:02 | 28.79113 | -82.25263 | 23619 ft | 426 kts | 181° |
| 2026-04-16 17:02 | 28.76158 | -82.25196 | 23392 ft | 425 kts | 181° |
| 2026-04-16 17:03 | 28.73208 | -82.25131 | 23169 ft | 423 kts | 181° |
| 2026-04-16 17:03 | 28.70298 | -82.25067 | 22892 ft | 424 kts | 180° |
| 2026-04-16 17:03 | 28.67353 | -82.25002 | 22657 ft | 423 kts | 180° |
| 2026-04-16 17:03 | 28.64413 | -82.24937 | 22520 ft | 420 kts | 180° |
| 2026-04-16 17:04 | 28.61507 | -82.24870 | 22496 ft | 415 kts | 180° |
| 2026-04-16 17:04 | 28.58635 | -82.24804 | 22458 ft | 410 kts | 180° |
| 2026-04-16 17:04 | 28.55795 | -82.24740 | 22436 ft | 406 kts | 180° |
| 2026-04-16 17:04 | 28.52984 | -82.24677 | 22412 ft | 402 kts | 180° |
| 2026-04-16 17:05 | 28.50198 | -82.24615 | 22390 ft | 399 kts | 180° |
| 2026-04-16 17:05 | 28.47435 | -82.24553 | 22370 ft | 396 kts | 181° |
| 2026-04-16 17:05 | 28.44692 | -82.24492 | 22353 ft | 393 kts | 181° |
| 2026-04-16 17:05 | 28.41970 | -82.24432 | 22331 ft | 390 kts | 180° |
| 2026-04-16 17:06 | 28.39261 | -82.24372 | 22321 ft | 388 kts | 180° |
| 2026-04-16 17:06 | 28.36573 | -82.24312 | 22300 ft | 386 kts | 180° |
| 2026-04-16 17:06 | 28.33899 | -82.24253 | 22289 ft | 383 kts | 180° |
| 2026-04-16 17:06 | 28.31237 | -82.24194 | 22281 ft | 382 kts | 180° |
| 2026-04-16 17:07 | 28.28588 | -82.24135 | 22270 ft | 380 kts | 180° |
| 2026-04-16 17:07 | 28.25954 | -82.24077 | 22259 ft | 378 kts | 180° |
| 2026-04-16 17:07 | 28.23348 | -82.24014 | 22204 ft | 368 kts | 180° |
| 2026-04-16 17:07 | 28.20850 | -82.23960 | 22090 ft | 350 kts | 182° |
| 2026-04-16 17:08 | 28.18532 | -82.24433 | 21846 ft | 333 kts | 207° |
| 2026-04-16 17:08 | 28.16720 | -82.25960 | 21349 ft | 324 kts | 233° |
| 2026-04-16 17:08 | 28.15732 | -82.28229 | 20759 ft | 323 kts | 256° |
| 2026-04-16 17:08 | 28.15322 | -82.30726 | 20294 ft | 322 kts | 262° |
| 2026-04-16 17:09 | 28.15035 | -82.33233 | 19840 ft | 320 kts | 263° |
| 2026-04-16 17:09 | 28.14769 | -82.35736 | 19404 ft | 319 kts | 264° |
| 2026-04-16 17:09 | 28.14506 | -82.38221 | 18989 ft | 317 kts | 264° |
| 2026-04-16 17:09 | 28.14243 | -82.40693 | 18567 ft | 315 kts | 264° |
| 2026-04-16 17:10 | 28.13986 | -82.43175 | 17944 ft | 319 kts | 264° |
| 2026-04-16 17:10 | 28.13734 | -82.45644 | 17595 ft | 313 kts | 264° |
| 2026-04-16 17:10 | 28.13490 | -82.48079 | 17186 ft | 310 kts | 264° |
| 2026-04-16 17:10 | 28.13249 | -82.50500 | 16722 ft | 309 kts | 264° |
| 2026-04-16 17:11 | 28.13036 | -82.52914 | 16274 ft | 308 kts | 270° |
| 2026-04-16 17:11 | 28.13500 | -82.55250 | 15780 ft | 307 kts | 300° |
| 2026-04-16 17:11 | 28.14932 | -82.57001 | 15339 ft | 304 kts | 329° |
| 2026-04-16 17:11 | 28.16898 | -82.57762 | 14962 ft | 299 kts | 350° |
| 2026-04-16 17:12 | 28.18970 | -82.58062 | 14534 ft | 301 kts | 354° |
| 2026-04-16 17:12 | 28.21067 | -82.58182 | 14105 ft | 302 kts | 358° |
| 2026-04-16 17:12 | 28.23168 | -82.58222 | 13706 ft | 301 kts | 359° |
| 2026-04-16 17:12 | 28.25255 | -82.58250 | 13342 ft | 299 kts | 359° |
| 2026-04-16 17:13 | 28.27326 | -82.58271 | 13004 ft | 297 kts | 359° |
| 2026-04-16 17:13 | 28.29375 | -82.58109 | 12639 ft | 296 kts | 14° |
| 2026-04-16 17:13 | 28.31298 | -82.57302 | 12310 ft | 294 kts | 24° |
| 2026-04-16 17:13 | 28.32951 | -82.55982 | 11911 ft | 291 kts | 51° |
| 2026-04-16 17:14 | 28.33788 | -82.53948 | 11266 ft | 287 kts | 82° |
| 2026-04-16 17:14 | 28.33732 | -82.51719 | 10613 ft | 286 kts | 92° |
| 2026-04-16 17:14 | 28.33707 | -82.49430 | 9936 ft | 286 kts | 89° |
| 2026-04-16 17:14 | 28.33751 | -82.47187 | 9285 ft | 282 kts | 88° |
| 2026-04-16 17:15 | 28.33810 | -82.44986 | 8696 ft | 277 kts | 88° |
| 2026-04-16 17:15 | 28.33882 | -82.42798 | 7832 ft | 281 kts | 88° |
| 2026-04-16 17:15 | 28.33774 | -82.40567 | 6850 ft | 287 kts | 103° |
| 2026-04-16 17:15 | 28.33129 | -82.38420 | 5869 ft | 289 kts | 114° |
| 2026-04-16 17:16 | 28.32280 | -82.36410 | 5318 ft | 275 kts | 115° |
| 2026-04-16 17:16 | 28.31482 | -82.34535 | 5120 ft | 254 kts | 115° |
| 2026-04-16 17:16 | 28.30716 | -82.32747 | 4938 ft | 253 kts | 115° |
| 2026-04-16 17:16 | 28.29951 | -82.30956 | 4830 ft | 252 kts | 115° |
| 2026-04-16 17:17 | 28.29176 | -82.29177 | 4668 ft | 251 kts | 119° |
| 2026-04-16 17:17 | 28.28111 | -82.27666 | 4586 ft | 238 kts | 134° |
| 2026-04-16 17:17 | 28.26896 | -82.26567 | 4514 ft | 211 kts | 146° |
| 2026-04-16 17:17 | 28.25666 | -82.25822 | 4494 ft | 195 kts | 154° |
| 2026-04-16 17:18 | 28.24399 | -82.25278 | 4528 ft | 196 kts | 160° |
| 2026-04-16 17:18 | 28.23077 | -82.24864 | 4525 ft | 198 kts | 164° |
| 2026-04-16 17:18 | 28.21750 | -82.24564 | 4494 ft | 190 kts | 168° |
| 2026-04-16 17:18 | 28.20437 | -82.24342 | 4518 ft | 194 kts | 170° |
| 2026-04-16 17:19 | 28.19073 | -82.24166 | 4501 ft | 198 kts | 172° |
| 2026-04-16 17:19 | 28.17689 | -82.24032 | 4494 ft | 200 kts | 173° |
| 2026-04-16 17:19 | 28.16307 | -82.23941 | 4504 ft | 199 kts | 174° |
| 2026-04-16 17:19 | 28.14933 | -82.23875 | 4316 ft | 199 kts | 175° |
| 2026-04-16 17:20 | 28.13545 | -82.23825 | 4079 ft | 200 kts | 176° |
| 2026-04-16 17:20 | 28.12168 | -82.23785 | 3863 ft | 194 kts | 177° |
| 2026-04-16 17:20 | 28.10856 | -82.23745 | 3874 ft | 185 kts | 176° |
| 2026-04-16 17:20 | 28.09598 | -82.23716 | 3865 ft | 178 kts | 176° |
| 2026-04-16 17:21 | 28.08332 | -82.23698 | 3889 ft | 188 kts | 178° |
| 2026-04-16 17:21 | 28.07017 | -82.23685 | 3901 ft | 187 kts | 178° |
| 2026-04-16 17:21 | 28.05732 | -82.23680 | 3913 ft | 183 kts | 178° |
| 2026-04-16 17:21 | 28.04461 | -82.23671 | 3887 ft | 181 kts | 178° |
| 2026-04-16 17:22 | 28.03204 | -82.23668 | 3876 ft | 178 kts | 178° |
| 2026-04-16 17:22 | 28.01965 | -82.23661 | 3574 ft | 179 kts | 177° |
| 2026-04-16 17:22 | 28.00721 | -82.23654 | 3220 ft | 179 kts | 178° |
| 2026-04-16 17:22 | 27.99532 | -82.23327 | 2815 ft | 176 kts | 140° |
| 2026-04-16 17:23 | 27.98924 | -82.22203 | 2813 ft | 171 kts | 101° |
| 2026-04-16 17:23 | 27.98914 | -82.20846 | 2736 ft | 178 kts | 89° |
| 2026-04-16 17:23 | 27.98904 | -82.19405 | 2676 ft | 184 kts | 90° |
| 2026-04-16 17:23 | 27.98895 | -82.17984 | 2623 ft | 181 kts | 90° |
| 2026-04-16 17:24 | 27.98893 | -82.16567 | 2412 ft | 177 kts | 90° |
| 2026-04-16 17:24 | 27.98900 | -82.15205 | 2177 ft | 168 kts | 90° |
| 2026-04-16 17:24 | 27.98906 | -82.13889 | 1974 ft | 169 kts | 90° |
| 2026-04-16 17:24 | 27.98908 | -82.12542 | 1786 ft | 174 kts | 90° |
| 2026-04-16 17:25 | 27.98907 | -82.11146 | 1525 ft | 177 kts | 90° |
| 2026-04-16 17:25 | 27.98911 | -82.09812 | 1282 ft | 165 kts | 90° |
| 2026-04-16 17:25 | 27.98915 | -82.08569 | 1072 ft | 151 kts | 90° |
| 2026-04-16 17:25 | 27.98915 | -82.07437 | 934 ft | 141 kts | 90° |
| 2026-04-16 17:26 | 27.98918 | -82.06347 | 727 ft | 139 kts | 89° |
| 2026-04-16 17:26 | 27.98921 | -82.05245 | 574 ft | 141 kts | 89° |
| 2026-04-16 17:26 | 27.98929 | -82.04118 | 325 ft | 144 kts | 90° |
| 2026-04-16 17:26 | 27.98926 | -82.03010 | 143 ft | 133 kts | 90° |
| 2026-04-16 17:27 | 27.98926 | -82.02124 | 141 ft | 82 kts | 90° |